createdAt,value
2022-12-14T00:01:32.698Z,0.09
2022-12-14T00:04:02.772Z,0.19
2022-12-14T00:06:35.920Z,0.13
2022-12-14T00:09:08.624Z,0.15
2022-12-14T00:11:38.764Z,0.17
2022-12-14T00:14:09.048Z,0.16
2022-12-14T00:16:39.593Z,0.07
2022-12-14T00:19:10.161Z,0.04
2022-12-14T00:21:40.246Z,-0.02
2022-12-14T00:24:13.287Z,0.06
2022-12-14T00:26:43.681Z,0.13
2022-12-14T00:29:13.782Z,0.09
2022-12-14T00:31:43.895Z,-0.18
2022-12-14T00:34:19.090Z,-0.05
2022-12-14T00:36:49.440Z,0.05
2022-12-14T00:39:22.109Z,-0.16
2022-12-14T00:41:52.117Z,-0.03
2022-12-14T00:44:22.137Z,-0.17
2022-12-14T00:46:52.226Z,-0.10
2022-12-14T00:49:22.473Z,-0.04
2022-12-14T00:51:52.521Z,0.03
2022-12-14T00:54:25.163Z,-0.08
2022-12-14T00:56:55.256Z,0.00
2022-12-14T00:59:27.344Z,-0.05
2022-12-14T01:01:58.250Z,-0.10
2022-12-14T01:04:28.588Z,-0.16
2022-12-14T01:06:59.085Z,-0.30
2022-12-14T01:09:31.816Z,-0.28
2022-12-14T01:12:02.020Z,-0.16
2022-12-14T01:14:32.011Z,-0.26
2022-12-14T01:17:02.052Z,-0.17
2022-12-14T01:19:32.341Z,-0.11
2022-12-14T01:22:02.362Z,-0.05
2022-12-14T01:24:34.978Z,-0.12
2022-12-14T01:27:05.064Z,-0.12
2022-12-14T01:29:35.388Z,-0.07
2022-12-14T01:32:06.457Z,-0.02
2022-12-14T01:34:36.559Z,-0.01
2022-12-14T01:37:06.781Z,0.03
2022-12-14T01:39:39.444Z,-0.24
2022-12-14T01:42:14.736Z,-0.20
2022-12-14T01:44:59.869Z,-0.20
2022-12-14T01:47:36.596Z,-0.19
2022-12-14T01:50:13.547Z,-0.16
2022-12-14T01:52:46.946Z,-0.65
2022-12-14T01:55:23.371Z,-0.25
2022-12-14T01:57:57.553Z,-0.32
2022-12-14T02:00:27.468Z,-0.15
2022-12-14T02:03:03.321Z,-0.33
2022-12-14T02:05:35.332Z,-0.37
2022-12-14T02:08:07.337Z,-0.30
2022-12-14T02:10:40.296Z,-0.33
2022-12-14T02:13:17.522Z,-0.36
2022-12-14T02:15:48.768Z,-0.51
2022-12-14T02:18:23.218Z,-0.39
2022-12-14T02:21:12.719Z,-0.30
2022-12-14T02:24:11.283Z,-0.44
2022-12-14T02:27:02.944Z,-0.64
2022-12-14T02:29:51.381Z,-0.53
2022-12-14T02:32:45.172Z,-0.36
2022-12-14T02:35:22.374Z,-0.33
2022-12-14T02:38:01.324Z,-0.28
2022-12-14T02:40:39.185Z,-0.26
2022-12-14T02:43:19.881Z,-0.24
2022-12-14T02:45:59.402Z,-0.74
2022-12-14T02:48:35.987Z,-0.76
2022-12-14T02:51:14.600Z,-0.48
2022-12-14T02:53:50.536Z,-0.25
2022-12-14T02:56:31.677Z,-0.20
2022-12-14T02:59:03.052Z,-0.25
2022-12-14T03:01:38.453Z,-0.18
2022-12-14T03:04:09.543Z,-0.20
2022-12-14T03:06:39.751Z,-0.24
2022-12-14T03:09:21.341Z,-0.25
2022-12-14T03:11:56.343Z,-0.25
2022-12-14T03:14:30.263Z,-0.44
2022-12-14T03:17:08.023Z,-0.19
2022-12-14T03:19:41.753Z,-0.15
2022-12-14T03:22:20.554Z,-0.19
2022-12-14T03:24:56.100Z,-0.14
2022-12-14T03:27:28.297Z,-0.29
2022-12-14T03:30:03.234Z,-0.28
2022-12-14T03:32:40.630Z,-0.66
2022-12-14T03:35:16.607Z,-0.48
2022-12-14T03:37:53.375Z,-0.44
2022-12-14T03:40:33.523Z,-0.47
2022-12-14T03:43:11.031Z,-0.31
2022-12-14T03:45:49.682Z,-0.26
2022-12-14T03:48:31.172Z,-0.26
2022-12-14T03:51:12.927Z,-0.19
2022-12-14T03:53:48.444Z,-0.12
2022-12-14T03:56:24.722Z,-0.10
2022-12-14T03:59:04.320Z,-0.20
2022-12-14T04:01:44.888Z,-0.20
2022-12-14T04:04:20.765Z,-0.33
2022-12-14T04:06:58.378Z,-0.34
2022-12-14T04:09:36.093Z,-0.26
2022-12-14T04:12:25.293Z,-0.29
2022-12-14T04:15:12.443Z,-0.39
2022-12-14T04:17:57.728Z,-0.51
2022-12-14T04:20:34.314Z,-0.50
2022-12-14T04:23:08.249Z,-0.63
2022-12-14T04:25:53.125Z,-0.77
2022-12-14T04:28:38.776Z,-0.66
2022-12-14T04:31:12.615Z,-0.69
2022-12-14T04:33:49.999Z,-0.45
2022-12-14T04:36:27.004Z,-0.39
2022-12-14T04:39:01.731Z,-0.40
2022-12-14T04:41:36.968Z,-0.53
2022-12-14T04:44:12.510Z,-0.59
2022-12-14T04:46:44.735Z,-0.43
2022-12-14T04:49:21.998Z,-0.62
2022-12-14T04:52:05.178Z,-0.69
2022-12-14T04:54:46.385Z,-0.38
2022-12-14T04:57:24.372Z,-0.23
2022-12-14T04:59:55.046Z,-0.19
2022-12-14T05:02:37.636Z,-0.26
2022-12-14T05:05:14.174Z,-0.24
2022-12-14T05:07:56.119Z,-0.17
2022-12-14T05:10:33.521Z,-0.33
2022-12-14T05:13:08.569Z,-0.30
2022-12-14T05:15:44.984Z,-0.38
2022-12-14T05:18:15.696Z,-0.38
2022-12-14T05:20:46.008Z,-0.37
2022-12-14T05:23:19.608Z,-0.28
2022-12-14T05:25:49.778Z,-0.20
2022-12-14T05:28:20.055Z,-0.54
2022-12-14T05:30:50.456Z,-0.33
2022-12-14T05:33:22.620Z,-0.24
2022-12-14T05:35:52.775Z,-0.25
2022-12-14T05:38:25.414Z,-0.37
2022-12-14T05:40:55.445Z,-0.61
2022-12-14T05:43:25.879Z,-0.60
2022-12-14T05:46:01.449Z,-0.70
2022-12-14T05:48:32.420Z,-0.77
2022-12-14T05:51:07.706Z,-0.58
2022-12-14T05:53:42.387Z,-0.45
2022-12-14T05:56:13.820Z,-0.28
2022-12-14T05:58:44.296Z,-0.47
2022-12-14T06:01:19.122Z,-0.42
2022-12-14T06:03:49.884Z,-0.40
2022-12-14T06:06:19.952Z,-0.31
2022-12-14T06:08:52.800Z,-0.29
2022-12-14T06:11:24.963Z,-0.14
2022-12-14T06:13:55.244Z,-0.27
2022-12-14T06:16:28.102Z,-0.15
2022-12-14T06:19:00.251Z,-0.20
2022-12-14T06:21:32.352Z,-0.14
2022-12-14T06:24:05.945Z,-0.12
2022-12-14T06:26:41.099Z,-0.23
2022-12-14T06:29:16.155Z,-0.13
2022-12-14T06:31:49.648Z,-0.15
2022-12-14T06:34:26.365Z,-0.34
2022-12-14T06:36:58.571Z,-0.40
2022-12-14T06:39:31.684Z,-0.74
2022-12-14T06:42:01.856Z,-0.63
2022-12-14T06:44:32.069Z,-0.37
2022-12-14T06:47:02.337Z,-0.37
2022-12-14T06:49:32.538Z,-0.68
2022-12-14T06:52:02.655Z,-0.30
2022-12-14T06:54:35.404Z,-0.28
2022-12-14T06:57:05.439Z,-0.25
2022-12-14T06:59:35.721Z,-0.10
2022-12-14T07:02:06.037Z,-0.30
2022-12-14T07:04:36.255Z,0.03
2022-12-14T07:07:06.406Z,0.13
2022-12-14T07:09:39.149Z,0.13
2022-12-14T07:12:09.828Z,-0.07
2022-12-14T07:14:39.984Z,0.04
2022-12-14T07:17:10.070Z,0.05
2022-12-14T07:19:40.148Z,0.16
2022-12-14T07:22:10.340Z,0.08
2022-12-14T07:24:43.467Z,0.03
2022-12-14T07:27:13.572Z,0.07
2022-12-14T07:29:44.984Z,0.08
2022-12-14T07:32:17.367Z,-0.02
2022-12-14T07:34:48.173Z,-0.08
2022-12-14T07:37:18.239Z,0.17
2022-12-14T07:39:50.918Z,0.07
2022-12-14T07:42:21.010Z,0.14
2022-12-14T07:44:50.976Z,0.08
2022-12-14T07:47:21.103Z,0.07
2022-12-14T07:49:51.691Z,0.20
2022-12-14T07:52:21.814Z,-0.14
2022-12-14T07:54:54.509Z,-0.15
2022-12-14T07:57:24.610Z,-0.54
2022-12-14T07:59:57.603Z,-0.05
2022-12-14T08:02:28.018Z,-0.41
2022-12-14T08:04:58.223Z,-0.22
2022-12-14T08:07:30.246Z,-0.13
2022-12-14T08:10:02.997Z,-0.06
2022-12-14T08:12:33.060Z,0.00
2022-12-14T08:15:05.224Z,-0.02
2022-12-14T08:17:35.282Z,0.09
2022-12-14T08:20:05.448Z,-0.28
2022-12-14T08:22:38.756Z,-0.10
2022-12-14T08:25:15.593Z,-0.08
2022-12-14T08:27:46.498Z,0.21
2022-12-14T08:30:16.770Z,0.12
2022-12-14T08:32:46.943Z,0.14
2022-12-14T08:35:19.974Z,-0.19
2022-12-14T08:37:50.500Z,-0.16
2022-12-14T08:40:23.145Z,0.21
2022-12-14T08:42:53.496Z,0.52
2022-12-14T08:45:24.227Z,0.63
2022-12-14T08:47:54.308Z,0.52
2022-12-14T08:50:24.503Z,0.22
2022-12-14T08:52:54.647Z,0.26
2022-12-14T08:55:30.339Z,0.63
2022-12-14T08:58:04.948Z,0.79
2022-12-14T09:00:35.414Z,0.90
2022-12-14T09:03:05.603Z,0.73
2022-12-14T09:05:37.203Z,0.58
2022-12-14T09:08:10.411Z,0.82
2022-12-14T09:10:43.022Z,0.94
2022-12-14T09:13:13.359Z,1.18
2022-12-14T09:15:43.522Z,1.32
2022-12-14T09:18:13.575Z,1.34
2022-12-14T09:20:43.702Z,1.23
2022-12-14T09:23:13.745Z,0.83
2022-12-14T09:25:46.367Z,1.20
2022-12-14T09:28:16.764Z,0.89
2022-12-14T09:30:46.795Z,0.62
2022-12-14T09:33:16.904Z,0.23
2022-12-14T09:35:46.933Z,0.11
2022-12-14T09:38:17.273Z,0.14
2022-12-14T09:40:58.745Z,0.31
2022-12-14T09:43:40.198Z,0.44
2022-12-14T09:46:30.222Z,0.45
2022-12-14T09:49:13.601Z,0.34
2022-12-14T09:51:43.832Z,0.89
2022-12-14T09:54:17.983Z,0.73
2022-12-14T09:56:50.900Z,0.59
2022-12-14T09:59:23.084Z,1.08
2022-12-14T10:02:30.203Z,1.11
2022-12-14T10:05:09.275Z,0.81
2022-12-14T10:07:44.452Z,0.71
2022-12-14T10:10:26.782Z,0.90
2022-12-14T10:13:10.665Z,0.98
2022-12-14T10:15:47.556Z,1.03
2022-12-14T10:21:36.237Z,1.09
2022-12-14T10:24:10.050Z,0.69
2022-12-14T10:26:46.866Z,0.80
2022-12-14T10:29:26.064Z,1.12
2022-12-14T10:32:04.612Z,0.98
2022-12-14T10:34:36.492Z,1.04
2022-12-14T10:37:15.600Z,1.04
2022-12-14T10:40:05.964Z,1.12
2022-12-14T10:42:49.462Z,0.91
2022-12-14T10:45:41.824Z,0.45
2022-12-14T10:48:37.385Z,1.00
2022-12-14T10:51:14.895Z,1.16
2022-12-14T10:53:49.549Z,1.05
2022-12-14T10:56:27.485Z,1.15
2022-12-14T10:59:23.760Z,1.14
2022-12-14T11:02:05.290Z,1.47
2022-12-14T11:04:39.146Z,1.47
2022-12-14T11:07:11.150Z,1.51
2022-12-14T11:09:42.866Z,1.33
2022-12-14T11:12:20.989Z,0.96
2022-12-14T11:14:56.656Z,1.38
2022-12-14T11:17:38.266Z,0.95
2022-12-14T11:20:18.668Z,1.40
2022-12-14T11:22:50.186Z,1.28
2022-12-14T11:25:36.739Z,1.49
2022-12-14T11:28:19.852Z,1.61
2022-12-14T11:31:06.582Z,1.61
2022-12-14T11:33:42.640Z,1.75
2022-12-14T11:36:25.479Z,1.82
2022-12-14T11:38:59.073Z,1.92
2022-12-14T11:41:34.955Z,1.43
2022-12-14T11:44:24.066Z,1.57
2022-12-14T11:46:57.545Z,1.58
2022-12-14T11:49:33.112Z,1.58
2022-12-14T11:52:09.382Z,1.56
2022-12-14T11:54:41.130Z,1.54
2022-12-14T11:57:18.195Z,1.67
2022-12-14T11:59:50.807Z,1.48
2022-12-14T12:02:27.180Z,1.41
2022-12-14T12:05:05.504Z,1.41
2022-12-14T12:07:37.620Z,1.51
2022-12-14T12:10:18.272Z,1.63
2022-12-14T12:12:54.248Z,1.44
2022-12-14T12:15:29.665Z,1.36
2022-12-14T12:18:05.279Z,1.52
2022-12-14T12:20:44.473Z,1.28
2022-12-14T12:23:20.503Z,1.21
2022-12-14T12:25:53.730Z,1.39
2022-12-14T12:28:30.012Z,1.42
2022-12-14T12:31:10.713Z,1.44
2022-12-14T12:33:49.414Z,1.40
2022-12-14T12:36:24.526Z,1.55
2022-12-14T12:39:07.445Z,1.45
2022-12-14T12:41:47.455Z,1.49
2022-12-14T12:44:28.675Z,1.57
2022-12-14T12:47:38.445Z,1.68
2022-12-14T12:50:07.845Z,1.59
2022-12-14T12:53:02.745Z,1.63
2022-12-14T12:55:37.402Z,1.39
2022-12-14T12:58:10.871Z,1.64
2022-12-14T13:00:43.103Z,1.53
2022-12-14T13:03:21.557Z,1.57
2022-12-14T13:05:55.383Z,1.59
2022-12-14T13:08:36.179Z,1.53
2022-12-14T13:11:30.823Z,0.97
2022-12-14T13:14:05.081Z,1.33
2022-12-14T13:16:38.037Z,1.20
2022-12-14T13:19:48.660Z,1.47
2022-12-14T13:22:09.837Z,1.10
2022-12-14T13:24:46.515Z,0.83
2022-12-14T13:27:46.116Z,1.23
2022-12-14T13:30:28.601Z,1.33
2022-12-14T13:33:10.723Z,1.40
2022-12-14T13:36:05.068Z,1.36
2022-12-14T13:38:54.916Z,1.07
2022-12-14T13:41:39.257Z,1.10
2022-12-14T13:44:16.244Z,1.15
2022-12-14T13:46:46.764Z,0.84
2022-12-14T13:49:25.397Z,0.93
2022-12-14T13:51:55.619Z,0.95
2022-12-14T13:54:30.439Z,1.18
2022-12-14T13:57:12.294Z,1.32
2022-12-14T13:59:45.384Z,1.17
2022-12-14T14:02:40.709Z,0.94
2022-12-14T14:05:46.267Z,0.98
2022-12-14T14:08:41.111Z,1.07
2022-12-14T14:11:42.028Z,1.06
2022-12-14T14:14:23.540Z,0.94
2022-12-14T14:16:57.122Z,0.87
2022-12-14T14:19:29.705Z,1.09
2022-12-14T14:22:22.682Z,1.02
2022-12-14T14:25:02.223Z,0.65
2022-12-14T14:27:39.271Z,0.77
2022-12-14T14:30:31.841Z,0.69
2022-12-14T14:33:43.312Z,0.71
2022-12-14T14:35:53.215Z,0.72
2022-12-14T14:38:31.724Z,0.93
2022-12-14T14:41:20.908Z,0.97
2022-12-14T14:43:54.511Z,0.95
2022-12-14T14:46:37.505Z,1.03
2022-12-14T14:49:09.600Z,1.04
2022-12-14T14:51:40.221Z,1.01
2022-12-14T14:57:56.412Z,0.72
2022-12-14T15:00:26.981Z,0.61
2022-12-14T15:03:01.215Z,0.96
2022-12-14T15:05:43.109Z,0.96
2022-12-14T15:08:22.865Z,0.94
2022-12-14T15:10:53.715Z,0.90
2022-12-14T15:13:27.764Z,0.87
2022-12-14T15:15:59.273Z,0.77
2022-12-14T15:18:33.359Z,0.66
2022-12-14T15:21:07.068Z,0.80
2022-12-14T15:23:39.871Z,0.93
2022-12-14T15:26:17.111Z,0.94
2022-12-14T15:28:51.642Z,0.96
2022-12-14T15:31:25.195Z,0.99
2022-12-14T15:33:58.270Z,0.42
2022-12-14T15:36:33.426Z,0.56
2022-12-14T15:39:03.570Z,0.73
2022-12-14T15:41:36.115Z,0.84
2022-12-14T15:44:06.225Z,0.48
2022-12-14T15:46:38.815Z,0.81
2022-12-14T15:49:24.720Z,0.63
2022-12-14T15:51:56.269Z,0.98
2022-12-14T15:54:28.956Z,1.00
2022-12-14T15:57:01.535Z,1.05
2022-12-14T15:59:34.573Z,0.98
2022-12-14T16:02:11.585Z,1.03
2022-12-14T16:04:45.448Z,1.15
2022-12-14T16:07:20.108Z,0.84
2022-12-14T16:09:51.669Z,0.91
2022-12-14T16:12:27.873Z,0.90
2022-12-14T16:15:00.569Z,0.82
2022-12-14T16:17:34.152Z,0.98
2022-12-14T16:20:19.697Z,1.07
2022-12-14T16:23:06.437Z,1.01
2022-12-14T16:25:39.691Z,1.00
2022-12-14T16:28:23.986Z,1.06
2022-12-14T16:30:57.961Z,1.09
2022-12-14T16:33:29.770Z,1.15
2022-12-14T16:36:10.008Z,1.09
2022-12-14T16:38:44.739Z,1.15
2022-12-14T16:41:14.887Z,1.02
2022-12-14T16:43:45.166Z,1.11
2022-12-14T16:46:20.317Z,1.06
2022-12-14T16:49:21.379Z,0.91
2022-12-14T16:52:07.977Z,1.11
2022-12-14T16:54:39.843Z,1.11
2022-12-14T16:57:20.194Z,1.12
2022-12-14T16:59:58.731Z,0.92
2022-12-14T17:02:34.461Z,0.95
2022-12-14T17:05:07.654Z,0.94
2022-12-14T17:07:43.350Z,1.06
2022-12-14T17:10:18.214Z,1.11
2022-12-14T17:12:53.644Z,1.12
2022-12-14T17:15:26.336Z,1.17
2022-12-14T17:17:58.295Z,1.10
2022-12-14T17:20:32.923Z,1.08
2022-12-14T17:23:06.905Z,1.13
2022-12-14T17:25:37.041Z,1.06
2022-12-14T17:28:23.433Z,1.06
2022-12-14T17:30:56.781Z,0.91
2022-12-14T17:33:28.297Z,1.03
2022-12-14T17:35:58.909Z,1.16
2022-12-14T17:38:34.471Z,1.21
2022-12-14T17:41:04.800Z,1.20
2022-12-14T17:43:34.932Z,1.11
2022-12-14T17:46:05.201Z,0.72
2022-12-14T17:48:37.334Z,0.96
2022-12-14T17:51:07.787Z,1.09
2022-12-14T17:53:40.401Z,1.12
2022-12-14T17:56:10.644Z,1.16
2022-12-14T17:58:45.690Z,1.19
2022-12-14T18:01:21.268Z,1.21
2022-12-14T18:03:51.700Z,1.30
2022-12-14T18:06:22.649Z,1.34
2022-12-14T18:08:55.308Z,1.34
2022-12-14T18:11:27.091Z,1.27
2022-12-14T18:13:57.505Z,1.33
2022-12-14T18:16:29.167Z,1.34
2022-12-14T18:18:59.539Z,1.34
2022-12-14T18:21:32.899Z,1.27
2022-12-14T18:24:10.839Z,1.29
2022-12-14T18:26:44.915Z,1.40
2022-12-14T18:29:17.893Z,1.47
2022-12-14T18:31:49.489Z,1.49
2022-12-14T18:34:20.074Z,1.48
2022-12-14T18:36:50.215Z,1.47
2022-12-14T18:39:23.294Z,1.36
2022-12-14T18:41:53.425Z,1.41
2022-12-14T18:44:23.567Z,1.45
2022-12-14T18:46:53.697Z,1.42
2022-12-14T18:49:27.046Z,1.49
2022-12-14T18:51:57.198Z,1.55
2022-12-14T18:54:29.863Z,1.52
2022-12-14T18:57:00.008Z,1.60
2022-12-14T18:59:30.200Z,1.48
2022-12-14T19:02:00.565Z,1.59
2022-12-14T19:04:33.832Z,1.66
2022-12-14T19:07:07.048Z,1.65
2022-12-14T19:09:39.725Z,1.74
2022-12-14T19:12:11.205Z,1.75
2022-12-14T19:14:41.200Z,1.79
2022-12-14T19:17:11.737Z,1.81
2022-12-14T19:19:44.557Z,1.81
2022-12-14T19:22:15.522Z,1.81
2022-12-14T19:24:52.661Z,1.79
2022-12-14T19:27:50.926Z,1.90
2022-12-14T19:30:20.233Z,1.94
2022-12-14T19:32:50.534Z,1.98
2022-12-14T19:35:21.613Z,1.99
2022-12-14T19:37:52.311Z,1.96
2022-12-14T19:40:25.015Z,2.00
2022-12-14T19:42:55.137Z,2.02
2022-12-14T19:45:25.502Z,2.03
2022-12-14T19:47:55.568Z,1.98
2022-12-14T19:50:25.796Z,2.00
2022-12-14T19:52:56.051Z,2.03
2022-12-14T19:55:28.814Z,2.04
2022-12-14T19:57:58.896Z,2.07
2022-12-14T20:00:28.992Z,2.09
2022-12-14T20:02:59.369Z,2.10
2022-12-14T20:05:29.600Z,2.13
2022-12-14T20:07:59.705Z,2.11
2022-12-14T20:10:35.589Z,2.12
2022-12-14T20:13:07.009Z,2.06
2022-12-14T20:15:37.069Z,2.05
2022-12-14T20:18:13.334Z,2.07
2022-12-14T20:20:43.521Z,2.05
2022-12-14T20:23:13.658Z,1.97
2022-12-14T20:25:46.556Z,2.08
2022-12-14T20:28:17.219Z,2.08
2022-12-14T20:30:49.008Z,2.09
2022-12-14T20:33:19.063Z,2.10
2022-12-14T20:35:54.145Z,2.06
2022-12-14T20:38:24.359Z,2.14
2022-12-14T20:40:57.309Z,2.12
2022-12-14T20:43:27.527Z,2.11
2022-12-14T20:45:57.820Z,2.12
2022-12-14T20:48:30.976Z,2.12
2022-12-14T20:51:02.513Z,2.14
2022-12-14T20:53:33.514Z,2.16
2022-12-14T20:56:08.922Z,2.13
2022-12-14T20:58:39.068Z,2.12
2022-12-14T21:01:10.553Z,2.13
2022-12-14T21:03:40.809Z,2.10
2022-12-14T21:06:11.941Z,2.12
2022-12-14T21:08:54.777Z,2.16
2022-12-14T21:11:39.943Z,2.15
2022-12-14T21:14:09.981Z,2.10
2022-12-14T21:16:40.930Z,2.11
2022-12-14T21:19:11.945Z,2.11
2022-12-14T21:21:51.680Z,2.09
2022-12-14T21:25:01.077Z,2.11
2022-12-14T21:27:20.349Z,2.14
2022-12-14T21:29:50.844Z,2.13
2022-12-14T21:32:21.693Z,2.10
2022-12-14T21:34:52.163Z,2.13
2022-12-14T21:37:22.716Z,2.16
2022-12-14T21:39:55.198Z,2.17
2022-12-14T21:42:26.137Z,2.09
2022-12-14T21:44:57.771Z,2.22
2022-12-14T21:47:30.298Z,2.20
2022-12-14T21:50:00.889Z,2.20
2022-12-14T21:52:31.337Z,2.20
2022-12-14T21:55:03.636Z,2.19
2022-12-14T21:57:49.872Z,2.21
2022-12-14T22:00:21.799Z,2.19
2022-12-14T22:02:51.970Z,2.21
2022-12-14T22:05:22.115Z,2.23
2022-12-14T22:07:52.209Z,2.23
2022-12-14T22:10:25.064Z,2.27
2022-12-14T22:12:58.023Z,2.32
2022-12-14T22:15:28.169Z,2.32
2022-12-14T22:17:58.245Z,2.32
2022-12-14T22:20:28.983Z,2.33
2022-12-14T22:23:00.185Z,2.36
2022-12-14T22:25:30.253Z,2.38
2022-12-14T22:28:03.207Z,2.39
2022-12-14T22:30:33.335Z,2.39
2022-12-14T22:33:03.384Z,2.34
2022-12-14T22:35:33.389Z,2.29
2022-12-14T22:38:03.747Z,2.34
2022-12-14T22:40:34.332Z,2.33
2022-12-14T22:43:06.970Z,2.30
2022-12-14T22:45:37.710Z,2.33
2022-12-14T22:48:08.771Z,2.33
2022-12-14T22:50:39.131Z,2.33
2022-12-14T22:53:09.109Z,2.29
2022-12-14T22:55:41.276Z,2.28
2022-12-14T22:58:16.222Z,2.28
2022-12-14T23:00:46.656Z,2.22
2022-12-14T23:03:17.261Z,2.21
2022-12-14T23:05:47.328Z,2.21
2022-12-14T23:08:17.407Z,2.15
2022-12-14T23:10:59.818Z,2.12
2022-12-14T23:13:44.846Z,2.13
2022-12-14T23:16:27.395Z,2.09
2022-12-14T23:19:10.224Z,2.06
2022-12-14T23:21:53.651Z,1.97
2022-12-14T23:24:36.139Z,1.96
2022-12-14T23:27:19.317Z,1.90
2022-12-14T23:30:04.388Z,1.90
2022-12-14T23:32:46.844Z,1.77
2022-12-14T23:35:29.527Z,1.88
2022-12-14T23:38:11.960Z,1.85
2022-12-14T23:40:54.370Z,1.92
2022-12-14T23:43:36.817Z,1.92
2022-12-14T23:46:22.159Z,1.92
2022-12-14T23:49:04.672Z,1.94
2022-12-14T23:51:47.195Z,1.96
2022-12-14T23:54:29.969Z,1.96
2022-12-14T23:57:12.446Z,1.94
2022-12-14T23:59:54.849Z,1.99
